Terminal Aerodrome Forecast
Issued by NWS Twin Cities, MN

Home | Current Version | Previous Version | Graphics & Text | Print | Product List | Glossary On
Versions: 1 2 3 4 5 6 7 8 9 10 11 12
000
FTUS43 KMPX 041733
TAFEAU
TAF
KEAU 041733Z 0418/0518 36008KT P6SM FEW300
     FM050200 04005KT P6SM SCT150
     FM050800 08005KT P6SM OVC080
     FM051500 11010KT P6SM VCSH SCT040 OVC060=

USA.gov is the U.S. government's official web portal to all federal, state and local government web resources and services.